Terminal Aerodrome Forecast
Issued by NWS Springfield, MO

Home | Current Version | Previous Version | Text Only | Print | Product List | Glossary On
Versions: 1 2 3 4 5 6 7 8 9 10 11 12 13 14 15 16 17 18 19 20 21 22 23 24 25 26 27
000
FTUS43 KSGF 250500
TAFSGF
TAF
KSGF 250529Z 2506/2606 19009KT 6SM -DZRA BR BKN007 OVC025
      TEMPO 2506/2509 SCT007 OVC025
     FM250900 18009KT P6SM BKN005 OVC015
      TEMPO 2511/2514 2SM BR BKN003
     FM251500 17011KT P6SM BKN025
     FM252000 18012G20KT P6SM SCT035
     FM260000 17010KT P6SM SCT050 BKN200 PROB30 2603/2606 5SM -TSRA
      BR BKN030CB=

USA.gov is the U.S. government's official web portal to all federal, state and local government web resources and services.